createdAt,value
2022-10-28T09:00:25.482Z,98726.06
2022-10-28T09:03:21.218Z,98733.25
2022-10-28T09:05:59.351Z,98734.75
2022-10-28T09:08:31.697Z,98735.91
2022-10-28T09:11:34.147Z,98743.31
2022-10-28T09:14:27.204Z,98745.66
2022-10-28T09:17:19.154Z,98739.88
2022-10-28T09:19:53.483Z,98748.09
2022-10-28T09:22:40.930Z,98747.97
2022-10-28T09:25:30.123Z,98761.41
2022-10-28T09:28:25.166Z,98756.19
2022-10-28T09:31:11.308Z,98751.06
2022-10-28T09:33:58.156Z,98751.09
2022-10-28T09:36:36.223Z,98748.53
2022-10-28T09:39:08.639Z,98749.19
2022-10-28T09:41:43.893Z,98742.78
2022-10-28T09:44:24.097Z,98737.34
2022-10-28T09:47:01.477Z,98744.94
2022-10-28T09:49:37.938Z,98736.88
2022-10-28T09:52:21.041Z,98744.63
2022-10-28T09:54:53.756Z,98740.44
2022-10-28T09:57:32.675Z,98746.16
2022-10-28T10:00:01.772Z,98751.88
2022-10-28T10:02:37.046Z,98748.69
2022-10-28T10:05:17.698Z,98750.13
2022-10-28T10:07:53.256Z,98748.50
2022-10-28T10:10:31.593Z,98742.25
2022-10-28T10:13:06.849Z,98735.16
2022-10-28T10:15:41.521Z,98734.59
2022-10-28T10:18:19.046Z,98730.31
2022-10-28T10:20:53.512Z,98723.91
2022-10-28T10:23:30.934Z,98728.13
2022-10-28T10:26:08.129Z,98719.44
2022-10-28T10:28:47.281Z,98716.78
2022-10-28T10:31:23.781Z,98706.44
2022-10-28T10:33:56.381Z,98696.69
2022-10-28T10:36:31.593Z,98698.13
2022-10-28T10:39:06.691Z,98692.59
2022-10-28T10:41:37.709Z,98693.00
2022-10-28T10:44:36.452Z,98686.28
2022-10-28T10:47:33.181Z,98684.03
2022-10-28T10:50:28.723Z,98663.25
2022-10-28T10:53:01.572Z,98663.00
2022-10-28T10:55:40.794Z,98658.28
2022-10-28T10:58:22.211Z,98657.81
2022-10-28T11:00:53.721Z,98658.81
2022-10-28T11:03:29.461Z,98651.44
2022-10-28T11:06:22.614Z,98649.94
2022-10-28T11:08:59.640Z,98635.22
2022-10-28T11:11:44.162Z,98633.50
2022-10-28T11:14:25.578Z,98628.56
2022-10-28T11:16:57.609Z,98630.31
2022-10-28T11:19:32.765Z,98642.91
2022-10-28T11:22:23.223Z,98631.66
2022-10-28T11:25:36.917Z,98628.13
2022-10-28T11:28:37.047Z,98626.22
2022-10-28T11:31:36.414Z,98616.84
2022-10-28T11:34:38.930Z,98621.69
2022-10-28T11:37:20.159Z,98619.59
2022-10-28T11:40:10.408Z,98612.84
2022-10-28T11:42:53.481Z,98615.88
2022-10-28T11:45:34.163Z,98613.16
2022-10-28T11:48:21.866Z,98610.06
2022-10-28T11:51:06.483Z,98605.72
2022-10-28T11:54:31.635Z,98609.91
2022-10-28T11:57:08.708Z,98615.94
2022-10-28T12:00:24.878Z,98620.63
2022-10-28T12:03:30.926Z,98607.53
2022-10-28T12:06:12.202Z,98617.09
2022-10-28T12:14:41.296Z,98609.44
2022-10-28T12:17:21.332Z,98609.81
2022-10-28T12:19:59.378Z,98605.31
2022-10-28T12:22:35.295Z,98601.75
2022-10-28T12:25:14.463Z,98602.38
2022-10-28T12:27:48.547Z,98592.53
2022-10-28T12:30:25.144Z,98590.50
2022-10-28T12:33:01.638Z,98588.41
2022-10-28T12:35:36.790Z,98593.63
2022-10-28T12:38:15.088Z,98589.50
2022-10-28T12:41:01.375Z,98578.69
2022-10-28T12:43:38.316Z,98577.53
2022-10-28T12:46:16.089Z,98579.28
2022-10-28T12:48:57.018Z,98582.28
2022-10-28T12:51:35.682Z,98580.69
2022-10-28T12:54:23.003Z,98580.44
2022-10-28T12:56:56.719Z,98575.75
2022-10-28T12:59:36.472Z,98562.81
2022-10-28T13:02:15.664Z,98563.06
2022-10-28T13:04:46.433Z,98562.59
2022-10-28T13:07:47.081Z,98559.69
2022-10-28T13:10:29.947Z,98566.63
2022-10-28T13:13:42.939Z,98566.41
2022-10-28T13:16:46.535Z,98575.97
2022-10-28T13:19:46.184Z,98576.81
2022-10-28T13:22:55.097Z,98587.19
2022-10-28T13:25:50.521Z,98581.22
2022-10-28T13:28:23.389Z,98575.91
2022-10-28T13:31:00.967Z,98581.78
2022-10-28T13:33:34.764Z,98575.44
2022-10-28T13:36:19.165Z,98577.84
2022-10-28T13:39:02.989Z,98582.13
2022-10-28T13:41:36.824Z,98573.59
2022-10-28T13:44:31.258Z,98577.84
2022-10-28T13:47:33.546Z,98578.56
2022-10-28T13:50:37.648Z,98580.41
2022-10-28T13:53:54.238Z,98573.47
2022-10-28T13:56:51.181Z,98581.44
2022-10-28T13:59:32.542Z,98584.66
2022-10-28T14:02:34.326Z,98577.75
2022-10-28T14:05:08.848Z,98574.28
2022-10-28T14:07:52.516Z,98579.94
2022-10-28T14:10:27.040Z,98576.59
2022-10-28T14:13:02.178Z,98590.22
2022-10-28T14:15:35.063Z,98589.84
2022-10-28T14:18:15.939Z,98594.47
2022-10-28T14:21:03.758Z,98591.81
2022-10-28T14:24:32.908Z,98587.31
2022-10-28T14:27:41.507Z,98584.06
2022-10-28T14:30:24.095Z,98580.59
2022-10-28T14:33:22.542Z,98584.53
2022-10-28T14:36:15.876Z,98582.34
2022-10-28T14:39:25.679Z,98581.78
2022-10-28T14:42:21.322Z,98585.94
2022-10-28T14:45:16.339Z,98590.31
2022-10-28T14:48:18.674Z,98585.25
2022-10-28T14:50:53.943Z,98587.31
2022-10-28T14:53:33.825Z,98577.16
2022-10-28T14:56:07.964Z,98582.91
2022-10-28T14:58:43.502Z,98593.63
2022-10-28T15:01:31.108Z,98593.25
2022-10-28T15:04:05.107Z,98595.91
2022-10-28T15:06:44.437Z,98593.72
2022-10-28T15:09:21.825Z,98595.81
2022-10-28T15:11:57.304Z,98599.97
2022-10-28T15:14:34.781Z,98609.41
2022-10-28T15:17:14.080Z,98605.00
2022-10-28T15:19:44.950Z,98602.13
2022-10-28T15:22:21.333Z,98605.44
2022-10-28T15:25:01.381Z,98612.81
2022-10-28T15:27:32.770Z,98613.28
2022-10-28T15:30:04.311Z,98612.13
2022-10-28T15:32:35.753Z,98614.19
2022-10-28T15:35:40.654Z,98619.59
2022-10-28T15:38:40.684Z,98614.97
2022-10-28T15:41:43.061Z,98602.38
2022-10-28T15:44:29.103Z,98608.38
2022-10-28T15:46:58.992Z,98607.22
2022-10-28T15:49:39.264Z,98611.56
2022-10-28T15:52:39.323Z,98621.22
2022-10-28T15:58:37.274Z,98619.31
2022-10-28T16:01:27.597Z,98630.34
2022-10-28T16:03:57.819Z,98636.91
2022-10-28T16:06:31.675Z,98638.38
2022-10-28T16:09:28.257Z,98641.66
2022-10-28T16:12:02.075Z,98651.91
2022-10-28T16:14:37.715Z,98646.69
2022-10-28T16:17:15.771Z,98651.84
2022-10-28T16:19:52.239Z,98653.16
2022-10-28T16:22:22.432Z,98650.94
2022-10-28T16:24:54.864Z,98650.38
2022-10-28T16:27:33.976Z,98644.91
2022-10-28T16:30:04.440Z,98646.81
2022-10-28T16:32:40.992Z,98649.91
2022-10-28T16:35:19.354Z,98658.28
2022-10-28T16:37:54.750Z,98664.84
2022-10-28T16:43:24.810Z,98674.28
2022-10-28T16:46:00.550Z,98678.16
2022-10-28T16:48:32.090Z,98680.66
2022-10-28T16:51:05.390Z,98690.06
2022-10-28T16:53:34.233Z,98680.09
2022-10-28T16:56:09.844Z,98686.84
2022-10-28T16:58:42.914Z,98688.31
2022-10-28T17:01:13.203Z,98695.63
2022-10-28T17:03:42.073Z,98689.94
2022-10-28T17:06:11.585Z,98700.75
2022-10-28T17:09:01.857Z,98699.13
2022-10-28T17:14:01.513Z,98697.34
2022-10-28T17:16:31.523Z,98706.50
2022-10-28T17:19:00.291Z,98705.97
2022-10-28T17:21:28.877Z,98710.06
2022-10-28T17:24:03.852Z,98701.75
2022-10-28T17:26:34.677Z,98704.59
2022-10-28T17:29:11.765Z,98707.50
2022-10-28T17:31:42.520Z,98702.03
2022-10-28T17:34:18.447Z,98711.00
2022-10-28T17:36:50.672Z,98709.19
2022-10-28T17:39:25.697Z,98711.44
2022-10-28T17:41:56.319Z,98715.75
2022-10-28T17:44:25.466Z,98715.16
2022-10-28T17:46:53.992Z,98717.16
2022-10-28T17:49:22.584Z,98722.06
2022-10-28T17:51:52.498Z,98726.38
2022-10-28T17:56:55.569Z,98728.22
2022-10-28T17:59:30.033Z,98723.38
2022-10-28T18:01:59.338Z,98716.88
2022-10-28T18:04:28.251Z,98720.34
2022-10-28T18:07:04.441Z,98720.13
2022-10-28T18:09:33.361Z,98726.25
2022-10-28T18:12:03.105Z,98730.72
2022-10-28T18:14:35.841Z,98731.94
2022-10-28T18:17:04.505Z,98724.22
2022-10-28T18:19:33.059Z,98724.22
2022-10-28T18:22:02.770Z,98735.81
2022-10-28T18:24:33.815Z,98735.81
2022-10-28T18:27:06.131Z,98738.84
2022-10-28T18:29:37.446Z,98745.78
2022-10-28T18:32:06.945Z,98741.94
2022-10-28T18:34:37.281Z,98744.56
2022-10-28T18:37:11.005Z,98747.41
2022-10-28T18:39:39.823Z,98750.28
2022-10-28T18:42:16.581Z,98764.66
2022-10-28T18:44:58.788Z,98757.78
2022-10-28T18:47:28.675Z,98768.94
2022-10-28T18:49:57.692Z,98767.72
2022-10-28T18:52:26.593Z,98768.13
2022-10-28T18:54:55.116Z,98779.09
2022-10-28T18:57:29.264Z,98775.00
2022-10-28T19:00:19.132Z,98774.41
2022-10-28T19:02:48.790Z,98775.00
2022-10-28T19:05:17.977Z,98778.47
2022-10-28T19:07:46.836Z,98781.50
2022-10-28T19:10:17.118Z,98785.56
2022-10-28T19:12:50.601Z,98773.59
2022-10-28T19:15:26.796Z,98780.88
2022-10-28T19:17:57.008Z,98773.59
2022-10-28T19:20:27.529Z,98783.31
2022-10-28T19:22:56.197Z,98779.84
2022-10-28T19:25:28.074Z,98774.81
2022-10-28T19:28:00.025Z,98773.72
2022-10-28T19:30:30.792Z,98772.09
2022-10-28T19:33:05.028Z,98777.59
2022-10-28T19:35:38.470Z,98779.00
2022-10-28T19:38:08.925Z,98784.50
2022-10-28T19:40:38.540Z,98782.22
2022-10-28T19:43:07.343Z,98782.63
2022-10-28T19:45:38.711Z,98781.41
2022-10-28T19:48:07.673Z,98767.63
2022-10-28T19:50:36.389Z,98772.06
2022-10-28T19:53:05.203Z,98773.69
2022-10-28T19:55:35.878Z,98772.63
2022-10-28T19:58:04.399Z,98774.03
2022-10-28T20:00:35.481Z,98774.00
2022-10-28T20:03:07.047Z,98790.22
2022-10-28T20:05:35.569Z,98796.72
2022-10-28T20:08:04.095Z,98793.84
2022-10-28T20:10:36.658Z,98793.41
2022-10-28T20:13:05.774Z,98795.25
2022-10-28T20:15:34.785Z,98800.09
2022-10-28T20:18:05.803Z,98802.72
2022-10-28T20:20:37.811Z,98809.81
2022-10-28T20:23:06.316Z,98820.34
2022-10-28T20:25:37.446Z,98822.16
2022-10-28T20:28:06.415Z,98819.09
2022-10-28T20:30:37.287Z,98821.31
2022-10-28T20:33:07.196Z,98829.38
2022-10-28T20:35:36.133Z,98824.88
2022-10-28T20:38:04.945Z,98823.06
2022-10-28T20:40:36.258Z,98829.28
2022-10-28T20:43:05.472Z,98820.56
2022-10-28T20:45:34.136Z,98820.94
2022-10-28T20:48:02.734Z,98827.44
2022-10-28T20:50:33.149Z,98839.38
2022-10-28T20:53:04.322Z,98838.13
2022-10-28T20:55:34.499Z,98840.75
2022-10-28T20:58:04.445Z,98839.28
2022-10-28T21:00:32.870Z,98853.19
2022-10-28T21:03:02.101Z,98851.81
2022-10-28T21:05:33.046Z,98845.56
2022-10-28T21:08:02.028Z,98855.25
2022-10-28T21:10:31.347Z,98847.38
2022-10-28T21:13:01.346Z,98847.38
2022-10-28T21:15:34.470Z,98852.63
2022-10-28T21:18:07.827Z,98859.91
2022-10-28T21:20:41.833Z,98857.81
2022-10-28T21:23:17.104Z,98863.84
2022-10-28T21:25:55.111Z,98863.19
2022-10-28T21:28:24.856Z,98860.56
2022-10-28T21:30:53.832Z,98860.41
2022-10-28T21:33:25.682Z,98853.50
2022-10-28T21:35:58.937Z,98849.44
2022-10-28T21:38:30.175Z,98855.09
2022-10-28T21:41:09.704Z,98851.63
2022-10-28T21:43:42.692Z,98852.84
2022-10-28T21:46:19.018Z,98851.59
2022-10-28T21:48:48.141Z,98849.94
2022-10-28T21:51:19.292Z,98838.00
2022-10-28T21:53:48.649Z,98836.56
2022-10-28T21:56:20.252Z,98839.38
2022-10-28T21:58:52.046Z,98856.16
2022-10-28T22:01:26.470Z,98852.91
2022-10-28T22:03:57.491Z,98853.72
2022-10-28T22:06:31.699Z,98848.63
2022-10-28T22:09:03.441Z,98838.94
2022-10-28T22:11:32.715Z,98836.69
2022-10-28T22:14:06.880Z,98833.19
2022-10-28T22:16:37.878Z,98838.44
2022-10-28T22:19:09.108Z,98834.81
2022-10-28T22:21:40.288Z,98828.34
2022-10-28T22:24:13.566Z,98828.75
2022-10-28T22:26:42.546Z,98825.47
2022-10-28T22:29:12.222Z,98827.31
2022-10-28T22:31:40.795Z,98833.31
2022-10-28T22:34:11.675Z,98844.47
2022-10-28T22:36:44.958Z,98834.13
2022-10-28T22:39:13.524Z,98844.84
2022-10-28T22:41:58.044Z,98835.94
2022-10-28T22:44:27.553Z,98835.94
2022-10-28T22:46:56.752Z,98831.69
2022-10-28T22:49:25.324Z,98841.56
2022-10-28T22:51:56.938Z,98836.69
2022-10-28T22:54:25.441Z,98828.56
2022-10-28T22:56:54.669Z,98835.81
2022-10-28T22:59:28.794Z,98832.31
2022-10-28T23:01:58.084Z,98829.16
2022-10-28T23:04:26.755Z,98832.22
2022-10-28T23:06:56.723Z,98832.06
2022-10-28T23:09:26.703Z,98821.94
2022-10-28T23:11:55.475Z,98837.78
2022-10-28T23:14:24.327Z,98837.97
2022-10-28T23:16:52.916Z,98829.63
2022-10-28T23:19:21.775Z,98820.16
2022-10-28T23:21:50.279Z,98820.50
2022-10-28T23:24:23.318Z,98822.50
2022-10-28T23:26:52.089Z,98825.50
2022-10-28T23:29:21.145Z,98820.63
2022-10-28T23:31:52.368Z,98816.63
2022-10-28T23:34:22.168Z,98816.44
2022-10-28T23:36:54.201Z,98813.38
2022-10-28T23:39:26.958Z,98823.69
2022-10-28T23:41:55.750Z,98815.81
2022-10-28T23:44:24.563Z,98810.38
2022-10-28T23:46:56.828Z,98815.63
2022-10-28T23:49:26.754Z,98827.75
2022-10-28T23:51:55.280Z,98820.44
2022-10-28T23:54:32.672Z,98817.00
2022-10-28T23:57:05.340Z,98818.63
2022-10-28T23:59:34.154Z,98821.38
